createdAt,value
2023-04-09T00:00:49.692Z,1663.00
2023-04-09T00:01:49.792Z,1669.00
2023-04-09T00:02:49.872Z,1611.00
2023-04-09T00:03:49.895Z,1641.00
2023-04-09T00:04:50.036Z,1674.00
2023-04-09T00:05:50.024Z,1649.00
2023-04-09T00:06:50.050Z,1662.00
2023-04-09T00:07:50.121Z,1669.00
2023-04-09T00:08:50.575Z,1641.00
2023-04-09T00:09:50.502Z,1661.00
2023-04-09T00:10:50.320Z,1704.00
2023-04-09T00:11:50.389Z,1678.00
2023-04-09T00:12:50.423Z,1661.00
2023-04-09T00:13:50.509Z,1637.00
2023-04-09T00:14:50.573Z,1659.00
2023-04-09T00:15:50.694Z,1628.00
2023-04-09T00:16:50.698Z,1626.00
2023-04-09T00:17:50.800Z,1645.00
2023-04-09T00:18:51.053Z,1641.00
2023-04-09T00:19:50.900Z,1636.00
2023-04-09T00:20:50.948Z,1619.00
2023-04-09T00:21:51.009Z,1665.00
2023-04-09T00:22:51.073Z,1604.00
2023-04-09T00:23:51.109Z,1616.00
2023-04-09T00:24:51.253Z,1612.00
2023-04-09T00:25:51.235Z,1626.00
2023-04-09T00:26:51.323Z,1598.00
2023-04-09T00:27:51.382Z,1626.00
2023-04-09T00:28:51.532Z,1639.00
2023-04-09T00:29:51.503Z,1599.00
2023-04-09T00:30:51.566Z,1646.00
2023-04-09T00:31:51.711Z,1627.00
2023-04-09T00:32:51.746Z,1650.00
2023-04-09T00:33:51.745Z,1650.00
2023-04-09T00:34:51.814Z,1658.00
2023-04-09T00:35:51.880Z,1641.00
2023-04-09T00:36:51.928Z,1693.00
2023-04-09T00:37:52.016Z,1682.00
2023-04-09T00:38:52.202Z,1691.00
2023-04-09T00:39:52.133Z,1680.00
2023-04-09T00:40:52.282Z,1643.00
2023-04-09T00:41:52.262Z,1667.00
2023-04-09T00:42:52.293Z,1661.00
2023-04-09T00:43:52.348Z,1724.00
2023-04-09T00:44:52.415Z,1683.00
2023-04-09T00:45:52.573Z,1712.00
2023-04-09T00:46:52.541Z,1729.00
2023-04-09T00:47:52.622Z,1740.00
2023-04-09T00:48:52.881Z,1738.00
2023-04-09T00:49:52.722Z,1704.00
2023-04-09T00:50:52.782Z,1707.00
2023-04-09T00:51:52.826Z,1730.00
2023-04-09T00:52:52.886Z,1723.00
2023-04-09T00:53:52.947Z,1750.00
2023-04-09T00:54:53.016Z,1762.00
2023-04-09T00:55:53.080Z,1766.00
2023-04-09T00:56:53.147Z,1771.00
2023-04-09T00:57:53.189Z,1753.00
2023-04-09T00:58:53.443Z,1744.00
2023-04-09T00:59:53.350Z,1741.00
2023-04-09T01:00:53.425Z,1717.00
2023-04-09T01:01:53.516Z,1749.00
2023-04-09T01:02:53.685Z,1746.00
2023-04-09T01:03:53.589Z,1746.00
2023-04-09T01:04:53.621Z,1736.00
2023-04-09T01:05:53.702Z,1733.00
2023-04-09T01:06:53.751Z,1723.00
2023-04-09T01:07:53.820Z,1738.00
2023-04-09T01:08:54.124Z,1713.00
2023-04-09T01:09:53.926Z,1715.00
2023-04-09T01:10:53.983Z,1686.00
2023-04-09T01:11:54.072Z,1686.00
2023-04-09T01:12:54.123Z,1707.00
2023-04-09T01:13:54.183Z,1696.00
2023-04-09T01:14:54.244Z,1675.00
2023-04-09T01:15:54.297Z,1687.00
2023-04-09T01:16:54.419Z,1680.00
2023-04-09T01:17:54.419Z,1697.00
2023-04-09T01:18:54.451Z,1716.00
2023-04-09T01:19:54.521Z,1668.00
2023-04-09T01:20:54.543Z,1682.00
2023-04-09T01:21:54.610Z,1689.00
2023-04-09T01:22:54.667Z,1705.00
2023-04-09T01:23:54.735Z,1671.00
2023-04-09T01:24:54.916Z,1682.00
2023-04-09T01:25:54.847Z,1724.00
2023-04-09T01:26:54.905Z,1714.00
2023-04-09T01:27:54.969Z,1721.00
2023-04-09T01:28:55.049Z,1715.00
2023-04-09T01:29:55.100Z,1720.00
2023-04-09T01:30:55.261Z,1702.00
2023-04-09T01:31:55.228Z,1720.00
2023-04-09T01:32:55.300Z,1728.00
2023-04-09T01:33:55.355Z,1766.00
2023-04-09T01:34:55.411Z,1717.00
2023-04-09T01:35:55.551Z,1755.00
2023-04-09T01:36:55.554Z,1731.00
2023-04-09T01:37:55.609Z,1743.00
2023-04-09T01:38:55.671Z,1738.00
2023-04-09T01:39:55.755Z,1685.00
2023-04-09T01:40:55.816Z,1717.00
2023-04-09T01:41:55.881Z,1709.00
2023-04-09T01:42:55.937Z,1737.00
2023-04-09T01:43:55.983Z,1675.00
2023-04-09T01:44:56.059Z,1695.00
2023-04-09T01:45:56.135Z,1714.00
2023-04-09T01:46:56.162Z,1713.00
2023-04-09T01:47:56.378Z,1695.00
2023-04-09T01:48:56.291Z,1679.00
2023-04-09T01:49:56.368Z,1699.00
2023-04-09T01:50:56.394Z,1705.00
2023-04-09T01:51:56.438Z,1667.00
2023-04-09T01:52:56.513Z,1654.00
2023-04-09T01:53:56.551Z,1690.00
2023-04-09T01:54:56.639Z,1699.00
2023-04-09T01:55:56.723Z,1678.00
2023-04-09T01:56:56.766Z,1678.00
2023-04-09T01:57:56.810Z,1697.00
2023-04-09T01:58:56.897Z,1694.00
2023-04-09T01:59:56.929Z,1677.00
2023-04-09T02:00:57.032Z,1649.00
2023-04-09T02:01:57.224Z,1675.00
2023-04-09T02:02:57.172Z,1689.00
2023-04-09T02:03:57.309Z,1713.00
2023-04-09T02:04:57.236Z,1671.00
2023-04-09T02:05:57.263Z,1706.00
2023-04-09T02:06:57.321Z,1668.00
2023-04-09T02:07:57.382Z,1669.00
2023-04-09T02:08:57.465Z,1679.00
2023-04-09T02:09:57.615Z,1670.00
2023-04-09T02:10:57.576Z,1693.00
2023-04-09T02:11:57.629Z,1711.00
2023-04-09T02:12:57.677Z,1683.00
2023-04-09T02:13:57.768Z,1672.00
2023-04-09T02:14:57.802Z,1692.00
2023-04-09T02:15:57.937Z,1668.00
2023-04-09T02:16:57.944Z,1678.00
2023-04-09T02:17:58.042Z,1659.00
2023-04-09T02:18:58.059Z,1698.00
2023-04-09T02:19:58.125Z,1698.00
2023-04-09T02:20:58.177Z,1700.00
2023-04-09T02:21:58.215Z,1722.00
2023-04-09T02:22:58.263Z,1715.00
2023-04-09T02:23:58.345Z,1729.00
2023-04-09T02:24:58.377Z,1803.00
2023-04-09T02:25:58.446Z,1804.00
2023-04-09T02:26:58.511Z,1836.00
2023-04-09T02:27:58.571Z,1817.00
2023-04-09T02:28:58.649Z,1784.00
2023-04-09T02:29:58.696Z,1775.00
2023-04-09T02:30:58.792Z,1796.00
2023-04-09T02:31:58.796Z,1754.00
2023-04-09T02:32:58.986Z,1777.00
2023-04-09T02:33:58.909Z,1785.00
2023-04-09T02:34:58.990Z,1805.00
2023-04-09T02:35:59.114Z,1820.00
2023-04-09T02:36:59.113Z,1780.00
2023-04-09T02:37:59.165Z,1842.00
2023-04-09T02:38:59.232Z,1807.00
2023-04-09T02:39:59.280Z,1774.00
2023-04-09T02:40:59.330Z,1787.00
2023-04-09T02:41:59.417Z,1786.00
2023-04-09T02:42:59.467Z,1773.00
2023-04-09T02:43:59.525Z,1797.00
2023-04-09T02:44:59.587Z,1756.00
2023-04-09T02:45:59.666Z,1740.00
2023-04-09T02:46:59.722Z,1733.00
2023-04-09T02:47:59.768Z,1709.00
2023-04-09T02:48:59.830Z,1741.00
2023-04-09T02:49:59.898Z,1746.00
2023-04-09T02:50:59.953Z,1712.00
2023-04-09T02:52:00.001Z,1713.00
2023-04-09T02:53:00.069Z,1711.00
2023-04-09T02:54:00.149Z,1668.00
2023-04-09T02:55:00.299Z,1640.00
2023-04-09T02:56:00.264Z,1602.00
2023-04-09T02:57:00.309Z,1624.00
2023-04-09T02:58:00.346Z,1581.00
2023-04-09T02:59:00.407Z,1579.00
2023-04-09T03:00:00.487Z,1554.00
2023-04-09T03:01:00.510Z,1564.00
2023-04-09T03:02:00.613Z,1537.00
2023-04-09T03:03:00.771Z,1557.00
2023-04-09T03:04:00.760Z,1537.00
2023-04-09T03:05:00.726Z,1542.00
2023-04-09T03:06:00.796Z,1475.00
2023-04-09T03:07:00.836Z,1536.00
2023-04-09T03:08:00.888Z,1516.00
2023-04-09T03:09:00.934Z,1530.00
2023-04-09T03:10:00.961Z,1490.00
2023-04-09T03:11:00.997Z,1480.00
2023-04-09T03:12:01.041Z,1504.00
2023-04-09T03:13:01.077Z,1486.00
2023-04-09T03:14:01.144Z,1469.00
2023-04-09T03:15:01.216Z,1531.00
2023-04-09T03:16:01.307Z,1601.00
2023-04-09T03:17:01.447Z,1601.00
2023-04-09T03:18:01.474Z,1612.00
2023-04-09T03:19:01.441Z,1620.00
2023-04-09T03:20:01.489Z,1638.00
2023-04-09T03:21:01.569Z,1637.00
2023-04-09T03:22:01.598Z,1659.00
2023-04-09T03:23:01.669Z,1666.00
2023-04-09T03:24:01.744Z,1670.00
2023-04-09T03:25:01.757Z,1663.00
2023-04-09T03:26:01.838Z,1686.00
2023-04-09T03:27:01.927Z,1686.00
2023-04-09T03:28:01.950Z,1735.00
2023-04-09T03:29:01.988Z,1682.00
2023-04-09T03:30:01.996Z,1714.00
2023-04-09T03:31:02.097Z,1720.00
2023-04-09T03:32:02.086Z,1715.00
2023-04-09T03:33:02.167Z,1688.00
2023-04-09T03:34:02.220Z,1678.00
2023-04-09T03:35:02.252Z,1649.00
2023-04-09T03:36:02.340Z,1652.00
2023-04-09T03:37:02.497Z,1688.00
2023-04-09T03:38:02.427Z,1697.00
2023-04-09T03:39:02.567Z,1660.00
2023-04-09T03:40:02.539Z,1673.00
2023-04-09T03:41:02.578Z,1680.00
2023-04-09T03:42:02.649Z,1642.00
2023-04-09T03:43:02.691Z,1642.00
2023-04-09T03:44:02.740Z,1594.00
2023-04-09T03:45:02.793Z,1613.00
2023-04-09T03:46:02.799Z,1621.00
2023-04-09T03:47:02.863Z,1619.00
2023-04-09T03:48:02.929Z,1638.00
2023-04-09T03:49:02.937Z,1585.00
2023-04-09T03:50:02.994Z,1609.00
2023-04-09T03:51:03.070Z,1640.00
2023-04-09T03:52:03.064Z,1597.00
2023-04-09T03:53:03.118Z,1583.00
2023-04-09T03:54:03.124Z,1581.00
2023-04-09T03:55:03.142Z,1600.00
2023-04-09T03:56:03.205Z,1551.00
2023-04-09T03:57:03.227Z,1541.00
2023-04-09T03:58:03.235Z,1586.00
2023-04-09T03:59:03.288Z,1556.00
2023-04-09T04:00:03.330Z,1556.00
2023-04-09T04:01:03.420Z,1533.00
2023-04-09T04:02:03.411Z,1546.00
2023-04-09T04:03:03.565Z,1542.00
2023-04-09T04:04:03.445Z,1523.00
2023-04-09T04:05:03.460Z,1500.00
2023-04-09T04:06:03.466Z,1504.00
2023-04-09T04:07:03.500Z,1504.00
2023-04-09T04:08:03.557Z,1524.00
2023-04-09T04:09:03.590Z,1533.00
2023-04-09T04:10:03.623Z,1519.00
2023-04-09T04:11:03.718Z,1547.00
2023-04-09T04:12:03.693Z,1524.00
2023-04-09T04:13:03.784Z,1535.00
2023-04-09T04:14:03.756Z,1516.00
2023-04-09T04:15:03.789Z,1557.00
2023-04-09T04:16:03.838Z,1543.00
2023-04-09T04:17:03.879Z,1533.00
2023-04-09T04:18:03.894Z,1492.00
2023-04-09T04:19:03.919Z,1500.00
2023-04-09T04:20:03.974Z,1507.00
2023-04-09T04:21:04.002Z,1507.00
2023-04-09T04:22:04.025Z,1521.00
2023-04-09T04:23:04.135Z,1531.00
2023-04-09T04:24:04.103Z,1538.00
2023-04-09T04:25:04.153Z,1526.00
2023-04-09T04:26:04.173Z,1551.00
2023-04-09T04:27:04.194Z,1570.00
2023-04-09T04:28:04.234Z,1589.00
2023-04-09T04:29:04.236Z,1586.00
2023-04-09T04:30:04.263Z,1567.00
2023-04-09T04:31:04.281Z,1582.00
2023-04-09T04:32:04.382Z,1597.00
2023-04-09T04:33:04.386Z,1576.00
2023-04-09T04:34:04.390Z,1625.00
2023-04-09T04:35:04.447Z,1573.00
2023-04-09T04:36:04.476Z,1573.00
2023-04-09T04:37:04.509Z,1551.00
2023-04-09T04:38:04.540Z,1589.00
2023-04-09T04:39:04.555Z,1593.00
2023-04-09T04:40:04.604Z,1633.00
2023-04-09T04:41:04.646Z,1672.00
2023-04-09T04:42:04.666Z,1637.00
2023-04-09T04:43:04.723Z,1623.00
2023-04-09T04:44:04.772Z,1640.00
2023-04-09T04:45:04.876Z,1657.00
2023-04-09T04:46:04.804Z,1655.00
2023-04-09T04:47:04.848Z,1642.00
2023-04-09T04:48:04.928Z,1646.00
2023-04-09T04:49:04.958Z,1649.00
2023-04-09T04:50:04.982Z,1622.00
2023-04-09T04:51:05.035Z,1636.00
2023-04-09T04:52:05.104Z,1614.00
2023-04-09T04:53:05.126Z,1611.00
2023-04-09T04:54:05.166Z,1614.00
2023-04-09T04:55:05.171Z,1622.00
2023-04-09T04:56:05.206Z,1571.00
2023-04-09T04:57:05.262Z,1610.00
2023-04-09T04:58:05.257Z,1589.00
2023-04-09T04:59:05.307Z,1596.00
2023-04-09T05:00:05.308Z,1585.00
2023-04-09T05:01:05.364Z,1612.00
2023-04-09T05:02:05.447Z,1607.00
2023-04-09T05:03:05.440Z,1574.00
2023-04-09T05:04:05.496Z,1573.00
2023-04-09T05:05:05.427Z,1571.00
2023-04-09T05:06:05.430Z,1597.00
2023-04-09T05:07:05.564Z,1585.00
2023-04-09T05:08:05.477Z,1599.00
2023-04-09T05:09:05.502Z,1570.00
2023-04-09T05:10:05.518Z,1597.00
2023-04-09T05:11:05.556Z,1587.00
2023-04-09T05:12:05.555Z,1592.00
2023-04-09T05:13:05.584Z,1587.00
2023-04-09T05:14:05.581Z,1550.00
2023-04-09T05:15:05.585Z,1566.00
2023-04-09T05:16:05.603Z,1570.00
2023-04-09T05:17:05.650Z,1585.00
2023-04-09T05:18:05.674Z,1531.00
2023-04-09T05:19:05.702Z,1605.00
2023-04-09T05:20:05.707Z,1591.00
2023-04-09T05:21:05.709Z,1645.00
2023-04-09T05:22:05.746Z,1650.00
2023-04-09T05:23:05.758Z,1655.00
2023-04-09T05:24:05.813Z,1643.00
2023-04-09T05:25:05.815Z,1639.00
2023-04-09T05:26:05.840Z,1593.00
2023-04-09T05:27:05.916Z,1649.00
2023-04-09T05:28:05.908Z,1628.00
2023-04-09T05:29:06.040Z,1633.00
2023-04-09T05:30:05.966Z,1657.00
2023-04-09T05:31:06.072Z,1654.00
2023-04-09T05:32:06.027Z,1636.00
2023-04-09T05:33:06.063Z,1638.00
2023-04-09T05:34:06.094Z,1627.00
2023-04-09T05:35:06.151Z,1595.00
2023-04-09T05:36:06.165Z,1599.00
2023-04-09T05:37:06.204Z,1615.00
2023-04-09T05:38:06.251Z,1603.00
2023-04-09T05:39:06.273Z,1602.00
2023-04-09T05:40:06.291Z,1601.00
2023-04-09T05:41:06.305Z,1584.00
2023-04-09T05:42:06.333Z,1580.00
2023-04-09T05:43:06.366Z,1595.00
2023-04-09T05:44:06.381Z,1591.00
2023-04-09T05:45:06.393Z,1575.00
2023-04-09T05:46:06.418Z,1603.00
2023-04-09T05:47:06.404Z,1569.00
2023-04-09T05:48:06.411Z,1574.00
2023-04-09T05:49:06.444Z,1580.00
2023-04-09T05:50:06.462Z,1600.00
2023-04-09T05:51:06.436Z,1557.00
2023-04-09T05:52:06.460Z,1596.00
2023-04-09T05:53:06.504Z,1563.00
2023-04-09T05:54:06.521Z,1589.00
2023-04-09T05:55:06.577Z,1579.00
2023-04-09T05:56:06.553Z,1513.00
2023-04-09T05:57:06.567Z,1546.00
2023-04-09T05:58:06.574Z,1516.00
2023-04-09T05:59:06.583Z,1537.00
2023-04-09T06:00:06.590Z,1546.00
2023-04-09T06:01:06.616Z,1521.00
2023-04-09T06:02:06.762Z,1548.00
2023-04-09T06:03:06.782Z,1536.00
2023-04-09T06:04:06.851Z,1565.00
2023-04-09T06:05:06.750Z,1531.00
2023-04-09T06:06:06.766Z,1511.00
2023-04-09T06:07:06.812Z,1555.00
2023-04-09T06:08:06.816Z,1562.00
2023-04-09T06:09:06.850Z,1545.00
2023-04-09T06:10:06.921Z,1567.00
2023-04-09T06:11:06.953Z,1559.00
2023-04-09T06:12:06.998Z,1582.00
2023-04-09T06:13:07.001Z,1534.00
2023-04-09T06:14:07.038Z,1580.00
2023-04-09T06:15:07.074Z,1609.00
2023-04-09T06:16:07.117Z,1598.00
2023-04-09T06:17:07.146Z,1612.00
2023-04-09T06:18:07.261Z,1605.00
2023-04-09T06:19:07.210Z,1640.00
2023-04-09T06:20:07.237Z,1634.00
2023-04-09T06:21:07.300Z,1581.00
2023-04-09T06:22:07.300Z,1615.00
2023-04-09T06:23:07.308Z,1606.00
2023-04-09T06:24:07.330Z,1595.00
2023-04-09T06:25:07.358Z,1602.00
2023-04-09T06:26:07.384Z,1563.00
2023-04-09T06:27:07.423Z,1572.00
2023-04-09T06:28:07.453Z,1556.00
2023-04-09T06:29:07.477Z,1554.00
2023-04-09T06:30:07.514Z,1531.00
2023-04-09T06:31:07.579Z,1522.00
2023-04-09T06:32:07.581Z,1501.00
2023-04-09T06:33:07.660Z,1540.00
2023-04-09T06:34:07.721Z,1544.00
2023-04-09T06:35:09.740Z,1532.00
2023-04-09T06:36:07.786Z,1525.00
2023-04-09T06:37:07.745Z,1547.00
2023-04-09T06:38:07.750Z,1567.00
2023-04-09T06:39:07.737Z,1515.00
2023-04-09T06:40:07.740Z,1554.00
2023-04-09T06:41:07.723Z,1530.00
2023-04-09T06:42:07.725Z,1540.00
2023-04-09T06:43:07.713Z,1519.00
2023-04-09T06:44:07.723Z,1517.00
2023-04-09T06:45:07.947Z,1505.00
2023-04-09T06:46:07.701Z,1483.00
2023-04-09T06:47:07.691Z,1507.00
2023-04-09T06:48:07.702Z,1515.00
2023-04-09T06:49:07.665Z,1461.00
2023-04-09T06:50:07.672Z,1434.00
2023-04-09T06:51:07.644Z,1418.00
2023-04-09T06:52:07.648Z,1363.00
2023-04-09T06:53:07.618Z,1410.00
2023-04-09T06:54:07.630Z,1383.00
2023-04-09T06:55:07.626Z,1405.00
2023-04-09T06:56:07.633Z,1396.00
2023-04-09T06:57:07.595Z,1398.00
2023-04-09T06:58:07.925Z,1379.00
2023-04-09T06:59:07.588Z,1340.00
2023-04-09T07:00:07.576Z,1347.00
2023-04-09T07:01:07.593Z,1367.00
2023-04-09T07:02:07.695Z,1362.00
2023-04-09T07:03:07.643Z,1348.00
2023-04-09T07:04:07.686Z,1407.00
2023-04-09T07:05:07.551Z,1355.00
2023-04-09T07:06:07.523Z,1419.00
2023-04-09T07:07:07.528Z,1391.00
2023-04-09T07:08:07.508Z,1345.00
2023-04-09T07:09:07.508Z,1371.00
2023-04-09T07:10:07.521Z,1322.00
2023-04-09T07:11:07.485Z,1364.00
2023-04-09T07:12:07.499Z,1330.00
2023-04-09T07:13:07.488Z,1329.00
2023-04-09T07:14:07.472Z,1326.00
2023-04-09T07:15:07.466Z,1320.00
2023-04-09T07:16:07.504Z,1290.00
2023-04-09T07:17:07.469Z,1256.00
2023-04-09T07:18:07.501Z,1265.00
2023-04-09T07:19:07.471Z,1261.00
2023-04-09T07:20:07.443Z,1270.00
2023-04-09T07:21:07.505Z,1275.00
2023-04-09T07:22:07.531Z,1259.00
2023-04-09T07:23:07.578Z,1264.00
2023-04-09T07:24:07.621Z,1287.00
2023-04-09T07:25:07.659Z,1253.00
2023-04-09T07:26:07.702Z,1254.00
2023-04-09T07:27:07.749Z,1241.00
2023-04-09T07:28:07.816Z,1218.00
2023-04-09T07:29:07.897Z,1193.00
2023-04-09T07:30:07.976Z,1218.00
2023-04-09T07:31:08.007Z,1166.00
2023-04-09T07:32:08.041Z,1149.00
2023-04-09T07:33:08.137Z,1162.00
2023-04-09T07:34:08.166Z,1134.00
2023-04-09T07:35:08.216Z,1116.00
2023-04-09T07:36:08.307Z,1130.00
2023-04-09T07:37:08.354Z,1166.00
2023-04-09T07:38:08.399Z,1098.00
2023-04-09T07:39:08.453Z,1081.00
2023-04-09T07:40:08.525Z,1074.00
2023-04-09T07:41:08.609Z,1080.00
2023-04-09T07:42:08.671Z,1046.00
2023-04-09T07:43:08.723Z,1117.00
2023-04-09T07:44:08.791Z,1077.00
2023-04-09T07:45:08.961Z,1068.00
2023-04-09T07:46:08.934Z,1057.00
2023-04-09T07:47:09.152Z,1052.00
2023-04-09T07:48:09.028Z,1054.00
2023-04-09T07:49:09.114Z,1031.00
2023-04-09T07:50:09.166Z,980.00
2023-04-09T07:51:09.207Z,1035.00
2023-04-09T07:52:09.293Z,996.00
2023-04-09T07:53:09.332Z,987.00
2023-04-09T07:54:09.398Z,979.00
2023-04-09T07:55:09.461Z,988.00
2023-04-09T07:56:09.519Z,1024.00
2023-04-09T07:57:09.563Z,1047.00
2023-04-09T07:58:09.634Z,1036.00
2023-04-09T07:59:09.683Z,991.00
2023-04-09T08:00:09.749Z,977.00
2023-04-09T08:01:09.808Z,972.00
2023-04-09T08:02:10.584Z,946.00
2023-04-09T08:03:10.088Z,947.00
2023-04-09T08:04:10.227Z,984.00
2023-04-09T08:05:10.050Z,1020.00
2023-04-09T08:06:10.070Z,1028.00
2023-04-09T08:07:10.109Z,1020.00
2023-04-09T08:08:10.166Z,980.00
2023-04-09T08:09:10.221Z,1030.00
2023-04-09T08:10:10.264Z,990.00
2023-04-09T08:11:10.295Z,949.00
2023-04-09T08:12:10.365Z,972.00
2023-04-09T08:13:12.002Z,942.00
2023-04-09T08:14:10.676Z,940.00
2023-04-09T08:15:10.473Z,996.00
2023-04-09T08:16:10.532Z,922.00
2023-04-09T08:17:10.564Z,944.00
2023-04-09T08:18:10.681Z,965.00
2023-04-09T08:19:10.629Z,957.00
2023-04-09T08:20:10.692Z,1006.00
2023-04-09T08:21:10.702Z,950.00
2023-04-09T08:22:10.719Z,928.00
2023-04-09T08:23:10.752Z,945.00
2023-04-09T08:24:10.796Z,948.00
2023-04-09T08:25:10.865Z,938.00
2023-04-09T08:26:10.861Z,941.00
2023-04-09T08:27:10.895Z,946.00
2023-04-09T08:28:10.947Z,901.00
2023-04-09T08:29:10.960Z,911.00
2023-04-09T08:30:10.998Z,924.00
2023-04-09T08:31:11.039Z,940.00
2023-04-09T08:32:11.163Z,954.00
2023-04-09T08:33:11.083Z,925.00
2023-04-09T08:34:11.122Z,957.00
2023-04-09T08:35:11.165Z,910.00
2023-04-09T08:36:11.195Z,954.00
2023-04-09T08:37:11.212Z,904.00
2023-04-09T08:38:11.249Z,904.00
2023-04-09T08:39:11.265Z,902.00
2023-04-09T08:40:11.326Z,920.00
2023-04-09T08:41:11.841Z,913.00
2023-04-09T08:42:11.370Z,868.00
2023-04-09T08:43:11.399Z,852.00
2023-04-09T08:44:11.476Z,813.00
2023-04-09T08:45:11.472Z,840.00
2023-04-09T08:46:11.548Z,923.00
2023-04-09T08:47:11.603Z,901.00
2023-04-09T08:48:11.653Z,868.00
2023-04-09T08:49:11.612Z,899.00
2023-04-09T08:50:11.660Z,862.00
2023-04-09T08:51:11.681Z,839.00
2023-04-09T08:52:11.700Z,878.00
2023-04-09T08:53:11.755Z,821.00
2023-04-09T08:54:11.772Z,837.00
2023-04-09T08:55:11.836Z,882.00
2023-04-09T08:56:11.852Z,888.00
2023-04-09T08:57:11.874Z,905.00
2023-04-09T08:58:11.907Z,957.00
2023-04-09T08:59:11.949Z,908.00
2023-04-09T09:00:11.983Z,918.00
2023-04-09T09:01:13.566Z,929.00
2023-04-09T09:02:12.565Z,920.00
2023-04-09T09:03:12.159Z,971.00
2023-04-09T09:04:12.160Z,951.00
2023-04-09T09:05:12.173Z,984.00
2023-04-09T09:06:12.186Z,910.00
2023-04-09T09:07:12.226Z,905.00
2023-04-09T09:08:12.272Z,906.00
2023-04-09T09:09:12.312Z,890.00
2023-04-09T09:10:12.329Z,873.00
2023-04-09T09:11:12.376Z,847.00
2023-04-09T09:12:12.393Z,762.00
2023-04-09T09:13:12.455Z,746.00
2023-04-09T09:14:12.469Z,802.00
2023-04-09T09:15:12.496Z,761.00
2023-04-09T09:16:12.547Z,767.00
2023-04-09T09:17:12.598Z,774.00
2023-04-09T09:18:12.595Z,740.00
2023-04-09T09:19:12.625Z,765.00
2023-04-09T09:20:12.662Z,719.00
2023-04-09T09:21:12.713Z,662.00
2023-04-09T09:22:12.760Z,662.00
2023-04-09T09:23:12.784Z,662.00
2023-04-09T09:24:12.821Z,718.00
2023-04-09T09:25:12.887Z,716.00
2023-04-09T09:26:12.894Z,711.00
2023-04-09T09:27:12.934Z,737.00
2023-04-09T09:28:12.968Z,698.00
2023-04-09T09:29:12.972Z,668.00
2023-04-09T09:30:13.022Z,666.00
2023-04-09T09:31:13.061Z,640.00
2023-04-09T09:32:13.080Z,686.00
2023-04-09T09:33:13.123Z,669.00
2023-04-09T09:34:13.147Z,707.00
2023-04-09T09:35:13.175Z,684.00
2023-04-09T09:36:13.270Z,699.00
2023-04-09T09:37:13.241Z,693.00
2023-04-09T09:38:13.279Z,672.00
2023-04-09T09:39:13.311Z,649.00
2023-04-09T09:40:13.350Z,635.00
2023-04-09T09:41:13.354Z,613.00
2023-04-09T09:42:13.402Z,614.00
2023-04-09T09:43:14.518Z,604.00
2023-04-09T09:44:13.463Z,604.00
2023-04-09T09:45:13.506Z,605.00
2023-04-09T09:46:13.605Z,599.00
2023-04-09T09:47:13.565Z,603.00
2023-04-09T09:48:13.615Z,618.00
2023-04-09T09:49:13.624Z,615.00
2023-04-09T09:50:13.656Z,580.00
2023-04-09T09:51:13.672Z,568.00
2023-04-09T09:52:13.716Z,559.00
2023-04-09T09:53:13.730Z,558.00
2023-04-09T09:54:13.771Z,565.00
2023-04-09T09:55:13.796Z,545.00
2023-04-09T09:56:13.803Z,553.00
2023-04-09T09:57:13.832Z,558.00
2023-04-09T09:58:13.860Z,538.00
2023-04-09T09:59:13.892Z,538.00
2023-04-09T10:00:13.913Z,546.00
2023-04-09T10:01:13.980Z,522.00
2023-04-09T10:02:14.053Z,532.00
2023-04-09T10:03:14.062Z,535.00
2023-04-09T10:04:14.055Z,533.00
2023-04-09T10:05:14.071Z,526.00
2023-04-09T10:06:14.084Z,500.00
2023-04-09T10:07:14.158Z,531.00
2023-04-09T10:08:14.154Z,517.00
2023-04-09T10:09:14.182Z,533.00
2023-04-09T10:10:14.217Z,509.00
2023-04-09T10:11:14.231Z,500.00
2023-04-09T10:12:14.253Z,513.00
2023-04-09T10:13:14.281Z,539.00
2023-04-09T10:14:14.297Z,532.00
2023-04-09T10:15:14.341Z,519.00
2023-04-09T10:16:14.446Z,508.00
2023-04-09T10:17:14.398Z,519.00
2023-04-09T10:18:14.419Z,495.00
2023-04-09T10:19:14.431Z,497.00
2023-04-09T10:20:14.440Z,499.00
2023-04-09T10:21:14.475Z,501.00
2023-04-09T10:22:14.481Z,508.00
2023-04-09T10:23:14.504Z,514.00
2023-04-09T10:24:14.534Z,539.00
2023-04-09T10:25:14.554Z,531.00
2023-04-09T10:26:14.595Z,523.00
2023-04-09T10:27:16.528Z,537.00
2023-04-09T10:28:14.713Z,500.00
2023-04-09T10:29:14.787Z,511.00
2023-04-09T10:30:14.794Z,523.00
2023-04-09T10:31:14.813Z,503.00
2023-04-09T10:32:14.784Z,496.00
2023-04-09T10:33:14.831Z,516.00
2023-04-09T10:34:14.818Z,525.00
2023-04-09T10:35:14.856Z,536.00
2023-04-09T10:36:14.900Z,532.00
2023-04-09T10:37:14.918Z,497.00
2023-04-09T10:38:14.881Z,500.00
2023-04-09T10:39:14.915Z,502.00
2023-04-09T10:40:14.972Z,501.00
2023-04-09T10:41:14.961Z,522.00
2023-04-09T10:42:14.967Z,535.00
2023-04-09T10:43:14.986Z,559.00
2023-04-09T10:44:15.025Z,528.00
2023-04-09T10:45:15.176Z,499.00
2023-04-09T10:46:15.057Z,509.00
2023-04-09T10:47:15.086Z,597.00
2023-04-09T10:48:15.092Z,592.00
2023-04-09T10:49:15.131Z,516.00
2023-04-09T10:50:15.179Z,497.00
2023-04-09T10:51:15.167Z,581.00
2023-04-09T10:52:15.210Z,588.00
2023-04-09T10:53:15.243Z,567.00
2023-04-09T10:54:15.260Z,536.00
2023-04-09T10:55:15.287Z,561.00
2023-04-09T10:56:15.320Z,522.00
2023-04-09T10:57:15.317Z,537.00
2023-04-09T10:58:15.352Z,548.00
2023-04-09T10:59:15.395Z,564.00
2023-04-09T11:00:15.374Z,541.00
2023-04-09T11:01:15.401Z,567.00
2023-04-09T11:02:15.561Z,587.00
2023-04-09T11:03:15.526Z,515.00
2023-04-09T11:04:15.473Z,515.00
2023-04-09T11:05:15.487Z,545.00
2023-04-09T11:06:15.539Z,534.00
2023-04-09T11:07:15.531Z,536.00
2023-04-09T11:08:15.546Z,516.00
2023-04-09T11:09:15.566Z,513.00
2023-04-09T11:10:15.597Z,499.00
2023-04-09T11:11:15.596Z,514.00
2023-04-09T11:12:15.612Z,519.00
2023-04-09T11:13:15.634Z,508.00
2023-04-09T11:14:15.664Z,513.00
2023-04-09T11:15:15.663Z,502.00
2023-04-09T11:16:24.086Z,531.00
2023-04-09T11:17:16.686Z,532.00
2023-04-09T11:18:15.687Z,538.00
2023-04-09T11:19:15.682Z,520.00
2023-04-09T11:20:15.655Z,572.00
2023-04-09T11:21:15.653Z,547.00
2023-04-09T11:22:15.652Z,517.00
2023-04-09T11:23:15.665Z,501.00
2023-04-09T11:24:15.617Z,522.00
2023-04-09T11:25:15.625Z,512.00
2023-04-09T11:26:15.623Z,536.00
2023-04-09T11:27:15.620Z,551.00
2023-04-09T11:28:15.612Z,568.00
2023-04-09T11:29:15.596Z,500.00
2023-04-09T11:30:15.600Z,555.00
2023-04-09T11:31:15.574Z,580.00
2023-04-09T11:32:15.588Z,541.00
2023-04-09T11:33:18.286Z,491.00
2023-04-09T11:34:15.565Z,492.00
2023-04-09T11:35:15.546Z,497.00
2023-04-09T11:36:15.572Z,496.00
2023-04-09T11:37:15.545Z,521.00
2023-04-09T11:38:15.550Z,558.00
2023-04-09T11:39:15.518Z,555.00
2023-04-09T11:40:15.528Z,521.00
2023-04-09T11:41:15.521Z,544.00
2023-04-09T11:42:15.511Z,520.00
2023-04-09T11:43:15.492Z,516.00
2023-04-09T11:44:15.496Z,514.00
2023-04-09T11:45:15.491Z,507.00
2023-04-09T11:46:15.485Z,535.00
2023-04-09T11:47:15.456Z,551.00
2023-04-09T11:48:15.462Z,527.00
2023-04-09T11:49:15.540Z,512.00
2023-04-09T11:50:15.442Z,524.00
2023-04-09T11:51:15.444Z,539.00
2023-04-09T11:52:15.426Z,509.00
2023-04-09T11:53:15.460Z,495.00
2023-04-09T11:54:15.423Z,526.00
2023-04-09T11:55:15.415Z,549.00
2023-04-09T11:56:15.410Z,566.00
2023-04-09T11:57:15.409Z,569.00
2023-04-09T11:58:15.393Z,550.00
2023-04-09T11:59:15.408Z,502.00
2023-04-09T12:00:15.412Z,529.00
2023-04-09T12:01:15.391Z,510.00
2023-04-09T12:02:15.449Z,512.00
2023-04-09T12:03:15.646Z,525.00
2023-04-09T12:04:15.502Z,551.00
2023-04-09T12:05:15.400Z,529.00
2023-04-09T12:06:15.327Z,546.00
2023-04-09T12:07:15.320Z,508.00
2023-04-09T12:08:15.314Z,571.00
2023-04-09T12:09:15.328Z,514.00
2023-04-09T12:10:15.300Z,500.00
2023-04-09T12:11:15.298Z,507.00
2023-04-09T12:12:15.296Z,544.00
2023-04-09T12:13:15.287Z,562.00
2023-04-09T12:14:15.288Z,563.00